Time;durP1;ratioP1;P1;durP2;ratioP2;P2;SDS_P1;SDS_P2;PMS_P1;PMS_P2;Temp;Humidity;BMP_temperature;BMP_pressure;BME280_temperature;BME280_humidity;BME280_pressure;Samples;Min_cycle;Max_cycle;Signal;HPM_P1;HPM_P2
2022/09/11 00:01:21;;;;;;;;;;;14.60;99.90;;;;;;5053854;28;20019;-82
2022/09/11 00:03:47;;;;;;;;;;;14.60;99.90;;;;;;5037317;28;20405;-82
2022/09/11 00:06:13;;;;;;;;;;;14.60;99.90;;;;;;5036900;28;20333;-82
2022/09/11 00:08:39;;;;;;;;;;;14.60;99.90;;;;;;5053852;28;19970;-82
2022/09/11 00:11:07;;;;;;;;;;;14.60;99.90;;;;;;5053780;28;19921;-82
2022/09/11 00:13:32;;;;;;;;;;;14.60;99.90;;;;;;5053414;28;20337;-82
2022/09/11 00:15:58;;;;;;;;;;;14.60;99.90;;;;;;5087098;28;19921;-82
2022/09/11 00:18:24;;;;;;;;;;;14.60;99.90;;;;;;5053693;28;19943;-82
2022/09/11 00:20:51;;;;;;;;;;;14.60;99.90;;;;;;5053459;28;19925;-82
2022/09/11 00:23:17;;;;;;;;;;;14.60;99.90;;;;;;5053264;28;20421;-82
2022/09/11 00:25:45;;;;;;;;;;;14.50;99.90;;;;;;5053365;28;19936;-82
2022/09/11 00:28:18;;;;;;;;;;;14.50;99.90;;;;;;5036701;28;19928;-82
2022/09/11 00:30:44;;;;;;;;;;;14.50;99.90;;;;;;5053443;28;19920;-82
2022/09/11 00:33:11;;;;;;;;;;;14.50;99.90;;;;;;5053178;28;19921;-82
2022/09/11 00:35:37;;;;;;;;;;;14.50;99.90;;;;;;5053035;28;19951;-82
2022/09/11 00:38:02;;;;;;;;;;;14.50;99.90;;;;;;5036644;28;19928;-82
2022/09/11 00:40:28;;;;;;;;;;;14.50;99.90;;;;;;5053419;28;19920;-82
2022/09/11 00:42:54;;;;;;;;;;;14.60;99.90;;;;;;5052706;28;19925;-82
2022/09/11 00:45:24;;;;;;;;;;;14.50;99.90;;;;;;5053029;28;19921;-82
2022/09/11 00:47:51;;;;;;;;;;;14.50;99.90;;;;;;5053428;28;19999;-82
2022/09/11 00:50:19;;;;;;;;;;;14.50;99.90;;;;;;5036007;28;19931;-82
2022/09/11 00:52:53;;;;;;;;;;;14.50;99.90;;;;;;5052771;28;19921;-82
2022/09/11 00:55:21;;;;;;;;;;;14.50;99.90;;;;;;5052004;28;21293;-82
2022/09/11 00:57:50;;;;;;;;;;;14.50;99.90;;;;;;5036444;28;20106;-82
2022/09/11 01:00:16;;;;;;;;;;;14.50;99.90;;;;;;5052861;28;19982;-82
2022/09/11 01:02:43;;;;;;;;;;;14.40;99.90;;;;;;5035309;28;19929;-82
2022/09/11 01:05:09;;;;;;;;;;;14.40;99.90;;;;;;5052874;28;19927;-82
2022/09/11 01:07:35;;;;;;;;;;;14.40;99.90;;;;;;5052549;28;19921;-82
2022/09/11 01:10:01;;;;;;;;;;;14.40;99.90;;;;;;5052645;28;19946;-82
2022/09/11 01:12:35;;;;;;;;;;;14.40;99.90;;;;;;5052380;28;19970;-82
2022/09/11 01:15:02;;;;;;;;;;;14.40;99.90;;;;;;5052617;28;19921;-82
2022/09/11 01:17:34;;;;;;;;;;;14.40;99.90;;;;;;5052670;28;19925;-82
2022/09/11 01:20:04;;;;;;;;;;;14.30;99.90;;;;;;5052337;28;19983;-82
2022/09/11 01:22:36;;;;;;;;;;;14.30;99.90;;;;;;5051981;28;19925;-82
2022/09/11 01:25:01;;;;;;;;;;;14.30;99.90;;;;;;5052247;28;19921;-82
2022/09/11 01:27:39;;;;;;;;;;;14.30;99.90;;;;;;5052330;28;20021;-82
2022/09/11 01:30:07;;;;;;;;;;;14.30;99.90;;;;;;5052336;28;19920;-82
2022/09/11 01:32:51;;;;;;;;;;;14.30;99.90;;;;;;5035365;28;19920;-82
2022/09/11 01:35:19;;;;;;;;;;;14.20;99.90;;;;;;5035475;28;19924;-82
2022/09/11 01:37:45;;;;;;;;;;;14.20;99.90;;;;;;5052191;28;19921;-82
2022/09/11 01:40:19;;;;;;;;;;;14.20;99.90;;;;;;5051874;28;19944;-82
2022/09/11 01:42:46;;;;;;;;;;;14.20;99.90;;;;;;5051803;28;19931;-82
2022/09/11 01:45:15;;;;;;;;;;;14.20;99.90;;;;;;5035158;28;19920;-82
2022/09/11 01:47:41;;;;;;;;;;;14.20;99.90;;;;;;5051698;28;20445;-82
2022/09/11 01:50:08;;;;;;;;;;;14.20;99.90;;;;;;5052053;28;19979;-82
2022/09/11 01:52:52;;;;;;;;;;;14.20;99.90;;;;;;5051596;28;19920;-82
2022/09/11 01:55:23;;;;;;;;;;;14.20;99.90;;;;;;5035290;28;19927;-82
2022/09/11 01:58:14;;;;;;;;;;;14.20;99.90;;;;;;5052830;28;19943;-82
2022/09/11 02:00:42;;;;;;;;;;;14.10;99.90;;;;;;5046609;28;19970;-82
2022/09/11 02:03:15;;;;;;;;;;;14.10;99.90;;;;;;5051132;28;19924;-82
2022/09/11 02:05:52;;;;;;;;;;;14.20;99.90;;;;;;5051904;28;20423;-82
2022/09/11 02:08:31;;;;;;;;;;;14.10;99.90;;;;;;5051425;28;19925;-82
2022/09/11 02:11:15;;;;;;;;;;;14.10;99.90;;;;;;5051120;28;19950;-82
2022/09/11 02:14:00;;;;;;;;;;;14.10;99.90;;;;;;5034660;28;20292;-82
2022/09/11 02:16:38;;;;;;;;;;;14.10;99.90;;;;;;5034194;28;19967;-82
2022/09/11 02:19:17;;;;;;;;;;;14.10;99.90;;;;;;5051109;28;19921;-82
2022/09/11 02:21:43;;;;;;;;;;;14.10;99.90;;;;;;5051181;28;20007;-82
2022/09/11 02:24:09;;;;;;;;;;;14.10;99.90;;;;;;5051339;28;19971;-82
2022/09/11 02:26:40;;;;;;;;;;;14.10;99.90;;;;;;5034656;28;19972;-82
2022/09/11 02:29:06;;;;;;;;;;;14.10;99.90;;;;;;5034440;28;19921;-82
2022/09/11 02:31:32;;;;;;;;;;;14.00;99.90;;;;;;5051213;28;19920;-82
2022/09/11 02:33:58;;;;;;;;;;;14.00;99.90;;;;;;5034665;28;20408;-82
2022/09/11 02:36:34;;;;;;;;;;;14.00;99.90;;;;;;5034422;28;19928;-82
2022/09/11 02:38:59;;;;;;;;;;;14.00;99.90;;;;;;5051102;28;19920;-82
2022/09/11 02:41:41;;;;;;;;;;;14.10;99.90;;;;;;5050304;28;20211;-82
2022/09/11 02:44:26;;;;;;;;;;;14.00;99.90;;;;;;5051415;28;20267;-82
2022/09/11 02:47:04;;;;;;;;;;;14.00;99.90;;;;;;5050822;28;19935;-82
2022/09/11 02:49:38;;;;;;;;;;;14.00;99.90;;;;;;5051142;28;19943;-82
2022/09/11 02:52:10;;;;;;;;;;;14.00;99.90;;;;;;5033875;28;19920;-82
2022/09/11 02:54:47;;;;;;;;;;;14.00;99.90;;;;;;5050622;28;19920;-82
2022/09/11 02:57:18;;;;;;;;;;;14.00;99.90;;;;;;5050745;28;20302;-82
2022/09/11 02:59:48;;;;;;;;;;;14.00;99.90;;;;;;5050954;28;19920;-82
2022/09/11 03:02:14;;;;;;;;;;;14.00;99.90;;;;;;5050220;28;19948;-82
2022/09/11 03:04:40;;;;;;;;;;;14.00;99.90;;;;;;5050700;28;20402;-82
2022/09/11 03:07:06;;;;;;;;;;;13.90;99.90;;;;;;5034105;28;19963;-82
2022/09/11 03:09:33;;;;;;;;;;;13.90;99.90;;;;;;5050511;28;20340;-82
2022/09/11 03:11:59;;;;;;;;;;;13.90;99.90;;;;;;5033904;28;19921;-82
2022/09/11 03:14:25;;;;;;;;;;;13.90;99.90;;;;;;5034014;28;20039;-82
2022/09/11 03:16:50;;;;;;;;;;;13.90;99.90;;;;;;5033529;28;19921;-82
2022/09/11 03:19:16;;;;;;;;;;;13.90;99.90;;;;;;5050532;28;20356;-82
2022/09/11 03:21:41;;;;;;;;;;;13.90;99.90;;;;;;5033791;28;19996;-82
2022/09/11 03:24:08;;;;;;;;;;;13.90;99.90;;;;;;5050291;28;20448;-82
2022/09/11 03:26:34;;;;;;;;;;;13.80;99.90;;;;;;5052561;28;19921;-82
2022/09/11 03:29:00;;;;;;;;;;;13.80;99.90;;;;;;5054647;28;19976;-82
2022/09/11 03:31:25;;;;;;;;;;;13.80;99.90;;;;;;5053896;28;19929;-82
2022/09/11 03:33:51;;;;;;;;;;;13.80;99.90;;;;;;5054843;28;19921;-82
2022/09/11 03:36:18;;;;;;;;;;;13.80;99.90;;;;;;5037769;28;19925;-82
2022/09/11 03:38:44;;;;;;;;;;;13.80;99.90;;;;;;5054260;28;19982;-82
2022/09/11 03:41:09;;;;;;;;;;;13.70;99.90;;;;;;5054036;28;19925;-82
2022/09/11 03:43:35;;;;;;;;;;;13.70;99.90;;;;;;5054335;28;20062;-82
2022/09/11 03:46:01;;;;;;;;;;;13.70;99.90;;;;;;5053885;28;19921;-82
2022/09/11 03:48:28;;;;;;;;;;;13.70;99.90;;;;;;5054202;28;19927;-82
2022/09/11 03:50:53;;;;;;;;;;;13.60;99.90;;;;;;5054236;28;20278;-82
2022/09/11 03:53:18;;;;;;;;;;;13.60;99.90;;;;;;5053874;28;19957;-82
2022/09/11 03:55:44;;;;;;;;;;;13.60;99.90;;;;;;5037201;28;20007;-82
2022/09/11 03:58:10;;;;;;;;;;;13.50;99.90;;;;;;5054305;28;20000;-82
2022/09/11 04:00:40;;;;;;;;;;;13.50;99.90;;;;;;5053679;28;19921;-82
2022/09/11 04:03:05;;;;;;;;;;;13.50;99.90;;;;;;5053720;28;19974;-82
2022/09/11 04:05:30;;;;;;;;;;;13.50;99.90;;;;;;5037470;28;20321;-82
2022/09/11 04:07:56;;;;;;;;;;;13.50;99.90;;;;;;5053979;28;19924;-82
2022/09/11 04:10:21;;;;;;;;;;;13.50;99.90;;;;;;5053619;28;19928;-82
2022/09/11 04:12:47;;;;;;;;;;;13.50;99.90;;;;;;5037154;28;19968;-82
2022/09/11 04:15:13;;;;;;;;;;;13.50;99.90;;;;;;5036946;28;19921;-82
2022/09/11 04:17:38;;;;;;;;;;;13.50;99.90;;;;;;5053782;28;19931;-82
2022/09/11 04:20:04;;;;;;;;;;;13.50;99.90;;;;;;5037412;28;19921;-82
2022/09/11 04:22:29;;;;;;;;;;;13.50;99.90;;;;;;5036713;28;20409;-82
2022/09/11 04:24:56;;;;;;;;;;;13.50;99.90;;;;;;5053257;28;19967;-82
2022/09/11 04:27:22;;;;;;;;;;;13.50;99.90;;;;;;5053403;28;20413;-82
2022/09/11 04:29:47;;;;;;;;;;;13.50;99.90;;;;;;5053306;28;19921;-82
2022/09/11 04:32:13;;;;;;;;;;;13.50;99.90;;;;;;5052923;28;19921;-82
2022/09/11 04:34:38;;;;;;;;;;;13.50;99.90;;;;;;5036817;28;19921;-82
2022/09/11 04:37:04;;;;;;;;;;;13.40;99.90;;;;;;5052717;28;20015;-82
2022/09/11 04:39:30;;;;;;;;;;;13.50;99.90;;;;;;5036461;28;19921;-82
2022/09/11 04:41:56;;;;;;;;;;;13.50;99.90;;;;;;5052973;28;20062;-82
2022/09/11 04:44:25;;;;;;;;;;;13.40;99.90;;;;;;5053015;28;19927;-82
2022/09/11 04:46:50;;;;;;;;;;;13.40;99.90;;;;;;5036217;28;20007;-82
2022/09/11 04:49:16;;;;;;;;;;;13.40;99.90;;;;;;5036673;28;20030;-82
2022/09/11 04:51:41;;;;;;;;;;;13.40;99.90;;;;;;5036179;28;19925;-82
2022/09/11 04:54:09;;;;;;;;;;;13.30;99.90;;;;;;5036241;28;19929;-82
2022/09/11 04:56:38;;;;;;;;;;;13.30;99.90;;;;;;5052854;28;19921;-82
2022/09/11 04:59:05;;;;;;;;;;;13.20;99.90;;;;;;5036208;28;19972;-82
2022/09/11 05:01:31;;;;;;;;;;;13.10;99.90;;;;;;5052478;28;19986;-82
2022/09/11 05:03:59;;;;;;;;;;;13.00;99.90;;;;;;5052871;28;20008;-81
2022/09/11 05:06:24;;;;;;;;;;;12.90;99.90;;;;;;5052619;28;20412;-82
2022/09/11 05:08:50;;;;;;;;;;;12.90;99.90;;;;;;5052636;28;19960;-82
2022/09/11 05:11:16;;;;;;;;;;;12.80;99.90;;;;;;5052367;28;19983;-82
2022/09/11 05:13:42;;;;;;;;;;;12.70;99.90;;;;;;5052573;28;19927;-82
2022/09/11 05:16:12;;;;;;;;;;;12.70;99.90;;;;;;5052309;28;19928;-81
2022/09/11 05:18:38;;;;;;;;;;;12.70;99.90;;;;;;5051575;28;20441;-81
2022/09/11 05:21:05;;;;;;;;;;;12.70;99.90;;;;;;5051522;28;19925;-81
2022/09/11 05:23:31;;;;;;;;;;;12.70;99.90;;;;;;5034880;28;19927;-81
2022/09/11 05:25:58;;;;;;;;;;;12.70;99.90;;;;;;5051722;28;19924;-81
2022/09/11 05:28:24;;;;;;;;;;;12.70;99.90;;;;;;5034961;28;19924;-81
2022/09/11 05:30:50;;;;;;;;;;;12.60;99.90;;;;;;5051333;28;19994;-81
2022/09/11 05:33:16;;;;;;;;;;;12.60;99.90;;;;;;5035227;28;20381;-81
2022/09/11 05:35:41;;;;;;;;;;;12.60;99.90;;;;;;5051618;28;19969;-81
2022/09/11 05:38:09;;;;;;;;;;;12.60;99.90;;;;;;5052873;28;19925;-81
2022/09/11 05:40:35;;;;;;;;;;;12.60;99.90;;;;;;5051635;28;19932;-81
2022/09/11 05:43:01;;;;;;;;;;;12.70;99.90;;;;;;5052714;28;20027;-81
2022/09/11 05:45:26;;;;;;;;;;;12.60;99.90;;;;;;5051538;28;19931;-81
2022/09/11 05:47:52;;;;;;;;;;;12.70;99.90;;;;;;5051606;28;19921;-81
2022/09/11 05:50:20;;;;;;;;;;;12.70;99.90;;;;;;5051331;28;19920;-81
2022/09/11 05:52:46;;;;;;;;;;;12.70;99.90;;;;;;5050687;28;19921;-81
2022/09/11 05:55:11;;;;;;;;;;;12.70;99.90;;;;;;5034510;28;19943;-81
2022/09/11 05:57:37;;;;;;;;;;;12.80;99.90;;;;;;5052543;28;20019;-81
2022/09/11 06:00:03;;;;;;;;;;;12.80;99.90;;;;;;5051037;28;19921;-82
2022/09/11 06:02:29;;;;;;;;;;;12.80;99.90;;;;;;5050896;28;20432;-81
2022/09/11 06:04:55;;;;;;;;;;;12.80;99.90;;;;;;5051085;28;19925;-82
2022/09/11 06:07:21;;;;;;;;;;;12.90;99.90;;;;;;5050795;28;20313;-82
2022/09/11 06:09:46;;;;;;;;;;;12.90;99.90;;;;;;5050887;28;20342;-82
2022/09/11 06:12:12;;;;;;;;;;;12.90;99.90;;;;;;5034009;28;20370;-82
2022/09/11 06:14:37;;;;;;;;;;;12.90;99.90;;;;;;5052117;28;19925;-81
2022/09/11 06:17:03;;;;;;;;;;;12.90;99.90;;;;;;5050853;28;20294;-82
2022/09/11 06:19:29;;;;;;;;;;;13.00;99.90;;;;;;5052170;28;20007;-81
2022/09/11 06:21:55;;;;;;;;;;;12.90;99.90;;;;;;5050452;28;20371;-81
2022/09/11 06:24:20;;;;;;;;;;;13.00;99.90;;;;;;5050605;28;19920;-81
2022/09/11 06:26:46;;;;;;;;;;;13.10;99.90;;;;;;5050635;28;19925;-82
2022/09/11 06:29:13;;;;;;;;;;;13.10;99.90;;;;;;5051953;28;19947;-82
2022/09/11 06:31:39;;;;;;;;;;;13.10;99.90;;;;;;5050291;28;19928;-81
2022/09/11 06:34:04;;;;;;;;;;;13.20;99.90;;;;;;5051907;28;19928;-82
2022/09/11 06:36:30;;;;;;;;;;;13.20;99.90;;;;;;5051642;28;19920;-81
2022/09/11 06:38:56;;;;;;;;;;;13.30;99.90;;;;;;5051627;28;19927;-82
2022/09/11 06:41:23;;;;;;;;;;;13.30;99.90;;;;;;5050189;28;19931;-81
2022/09/11 06:43:49;;;;;;;;;;;13.40;99.90;;;;;;5044179;28;19921;-82
2022/09/11 06:46:18;;;;;;;;;;;13.40;99.90;;;;;;5050684;28;19921;-82
2022/09/11 06:48:45;;;;;;;;;;;13.50;99.90;;;;;;5051650;28;19999;-82
2022/09/11 06:51:12;;;;;;;;;;;13.50;99.90;;;;;;5050024;28;19931;-81
2022/09/11 06:53:37;;;;;;;;;;;13.60;99.90;;;;;;5050458;28;19951;-82
2022/09/11 06:56:04;;;;;;;;;;;13.70;99.90;;;;;;5050177;28;20382;-82
2022/09/11 06:58:29;;;;;;;;;;;13.70;99.90;;;;;;5050387;28;19920;-82
2022/09/11 07:01:00;;;;;;;;;;;13.80;99.90;;;;;;5049471;28;20435;-82
2022/09/11 07:03:25;;;;;;;;;;;13.90;99.90;;;;;;5033741;28;20008;-82
2022/09/11 07:05:51;;;;;;;;;;;13.90;99.90;;;;;;5083475;28;19975;-82
2022/09/11 07:08:16;;;;;;;;;;;14.00;99.90;;;;;;5083534;28;20298;-82
2022/09/11 07:10:42;;;;;;;;;;;14.10;99.90;;;;;;5051632;28;19963;-82
2022/09/11 07:13:07;;;;;;;;;;;14.10;99.90;;;;;;5083231;28;20003;-82
2022/09/11 07:15:33;;;;;;;;;;;14.20;99.90;;;;;;5051348;28;19921;-82
2022/09/11 07:18:00;;;;;;;;;;;14.30;99.90;;;;;;5050166;28;19927;-82
2022/09/11 07:20:26;;;;;;;;;;;14.30;99.90;;;;;;5032835;28;19921;-82
2022/09/11 07:22:51;;;;;;;;;;;14.40;99.90;;;;;;5050803;28;20062;-82
2022/09/11 07:25:17;;;;;;;;;;;14.50;99.90;;;;;;5051383;28;19932;-82
2022/09/11 07:27:43;;;;;;;;;;;14.60;99.90;;;;;;5050296;28;19944;-82
2022/09/11 07:30:08;;;;;;;;;;;14.70;99.90;;;;;;5051079;28;20298;-82
2022/09/11 07:32:34;;;;;;;;;;;14.80;99.90;;;;;;5049603;28;19921;-82
2022/09/11 07:35:01;;;;;;;;;;;14.80;99.90;;;;;;5083589;28;19928;-82
2022/09/11 07:37:26;;;;;;;;;;;14.90;99.90;;;;;;5033155;28;19921;-82
2022/09/11 07:39:52;;;;;;;;;;;15.00;99.90;;;;;;5051231;28;20378;-82
2022/09/11 07:42:17;;;;;;;;;;;15.10;99.90;;;;;;5050682;28;19974;-82
2022/09/11 07:44:43;;;;;;;;;;;15.20;99.90;;;;;;5083270;28;19928;-82
2022/09/11 07:47:08;;;;;;;;;;;15.20;99.90;;;;;;5083222;28;20297;-82
2022/09/11 07:49:34;;;;;;;;;;;15.30;99.90;;;;;;5083450;28;19920;-82
2022/09/11 07:52:02;;;;;;;;;;;15.40;99.90;;;;;;5049079;28;20504;-82
2022/09/11 07:54:28;;;;;;;;;;;15.50;99.90;;;;;;5049850;28;19972;-82
2022/09/11 07:56:54;;;;;;;;;;;15.50;99.90;;;;;;5049657;28;19992;-82
2022/09/11 07:59:21;;;;;;;;;;;15.60;99.90;;;;;;5049300;28;19929;-82
2022/09/11 08:01:47;;;;;;;;;;;15.70;99.90;;;;;;5048998;28;19924;-82
2022/09/11 08:04:13;;;;;;;;;;;15.80;99.90;;;;;;5050139;28;20301;-82
2022/09/11 08:06:38;;;;;;;;;;;15.90;99.90;;;;;;5050886;28;19924;-82
2022/09/11 08:09:06;;;;;;;;;;;15.90;99.90;;;;;;5050201;28;20318;-83
2022/09/11 08:11:33;;;;;;;;;;;16.00;99.90;;;;;;5051169;28;19928;-82
2022/09/11 08:13:59;;;;;;;;;;;16.10;99.90;;;;;;5052480;28;19921;-82
2022/09/11 08:16:25;;;;;;;;;;;16.20;99.90;;;;;;5036955;28;19936;-82
2022/09/11 08:18:51;;;;;;;;;;;16.30;99.90;;;;;;5054967;28;19921;-82
2022/09/11 08:21:17;;;;;;;;;;;16.40;99.90;;;;;;5052635;28;19925;-82
2022/09/11 08:23:44;;;;;;;;;;;16.50;99.90;;;;;;5054441;28;20330;-82
2022/09/11 08:26:14;;;;;;;;;;;16.60;99.90;;;;;;5053293;28;19921;-82
2022/09/11 08:28:41;;;;;;;;;;;16.70;99.90;;;;;;5054071;28;19927;-82
2022/09/11 08:31:08;;;;;;;;;;;16.80;99.90;;;;;;5052674;28;19925;-82
2022/09/11 08:33:33;;;;;;;;;;;16.90;99.90;;;;;;5054128;28;19924;-82
2022/09/11 08:36:01;;;;;;;;;;;17.10;99.90;;;;;;5052544;28;19992;-83
2022/09/11 08:38:26;;;;;;;;;;;17.20;99.90;;;;;;5042403;28;19929;-82
2022/09/11 08:40:52;;;;;;;;;;;17.30;99.90;;;;;;5076664;28;19921;-83
2022/09/11 08:43:23;;;;;;;;;;;17.40;99.90;;;;;;5016865;28;20394;-82
2022/09/11 08:45:50;;;;;;;;;;;17.50;99.90;;;;;;5049227;28;19928;-83
2022/09/11 08:48:20;;;;;;;;;;;17.50;99.90;;;;;;5033873;28;20011;-83
2022/09/11 08:50:48;;;;;;;;;;;17.60;99.90;;;;;;5039706;28;19925;-82
2022/09/11 08:53:15;;;;;;;;;;;17.70;99.90;;;;;;5033880;28;19921;-83
2022/09/11 08:55:46;;;;;;;;;;;17.70;99.90;;;;;;5033988;28;19967;-83
2022/09/11 08:58:30;;;;;;;;;;;17.70;99.90;;;;;;5033610;28;19921;-83
2022/09/11 09:01:08;;;;;;;;;;;17.80;99.90;;;;;;5032340;28;20015;-82
2022/09/11 09:03:52;;;;;;;;;;;17.90;99.90;;;;;;5034058;28;19925;-83
2022/09/11 09:06:20;;;;;;;;;;;17.90;99.90;;;;;;5032617;28;19932;-83
2022/09/11 09:09:06;;;;;;;;;;;18.00;99.90;;;;;;5032013;28;20394;-82
2022/09/11 09:11:41;;;;;;;;;;;18.20;99.90;;;;;;5015852;28;20059;-82
2022/09/11 09:14:13;;;;;;;;;;;18.30;99.90;;;;;;5032778;28;19921;-83
2022/09/11 09:16:58;;;;;;;;;;;18.40;99.90;;;;;;5016494;28;19925;-83
2022/09/11 09:19:27;;;;;;;;;;;18.60;99.90;;;;;;5034864;28;19921;-82
2022/09/11 09:22:02;;;;;;;;;;;18.70;99.90;;;;;;5032256;28;19925;-83
2022/09/11 09:24:35;;;;;;;;;;;18.90;99.90;;;;;;5047987;28;19935;-83
2022/09/11 09:27:01;;;;;;;;;;;19.00;99.90;;;;;;5031956;28;19921;-83
2022/09/11 09:29:30;;;;;;;;;;;19.00;99.90;;;;;;5031786;28;20302;-83
2022/09/11 09:32:03;;;;;;;;;;;19.10;99.90;;;;;;5048442;28;19921;-83
2022/09/11 09:34:30;;;;;;;;;;;19.20;99.90;;;;;;5032045;28;20425;-83
2022/09/11 09:36:55;;;;;;;;;;;19.30;99.90;;;;;;5031798;28;19921;-83
2022/09/11 09:39:22;;;;;;;;;;;19.40;99.90;;;;;;5051483;28;19975;-83
2022/09/11 09:41:57;;;;;;;;;;;19.50;99.90;;;;;;5050825;28;19947;-83
2022/09/11 09:44:29;;;;;;;;;;;19.50;99.90;;;;;;5051452;28;19921;-83
2022/09/11 09:46:55;;;;;;;;;;;19.50;99.90;;;;;;5051401;28;20357;-83
2022/09/11 09:49:29;;;;;;;;;;;19.50;99.90;;;;;;5050993;28;19964;-83
2022/09/11 09:51:55;;;;;;;;;;;19.60;99.90;;;;;;5034466;28;20436;-83
2022/09/11 09:54:25;;;;;;;;;;;19.60;99.90;;;;;;5067990;28;19920;-83
2022/09/11 09:56:55;;;;;;;;;;;19.60;99.90;;;;;;5050881;28;19921;-83
2022/09/11 09:59:36;;;;;;;;;;;19.60;99.90;;;;;;5051263;28;19927;-83
2022/09/11 10:02:01;;;;;;;;;;;19.70;99.90;;;;;;5050866;28;19999;-83
2022/09/11 10:04:29;;;;;;;;;;;19.80;99.90;;;;;;5052448;28;20007;-83
2022/09/11 10:07:16;;;;;;;;;;;19.80;99.90;;;;;;5052163;28;20390;-83
2022/09/11 10:09:47;;;;;;;;;;;19.80;99.90;;;;;;5034217;28;19921;-83
2022/09/11 10:12:15;;;;;;;;;;;19.90;99.90;;;;;;5050863;28;19920;-83
2022/09/11 10:14:53;;;;;;;;;;;19.90;99.90;;;;;;5052153;28;20394;-83
2022/09/11 10:17:19;;;;;;;;;;;19.90;99.90;;;;;;5050685;28;20398;-83
2022/09/11 10:19:45;;;;;;;;;;;19.90;99.90;;;;;;5050387;28;19921;-83
2022/09/11 10:22:24;;;;;;;;;;;19.90;99.90;;;;;;5050351;28;19925;-83
2022/09/11 10:25:02;;;;;;;;;;;20.00;99.90;;;;;;5067583;28;20573;-83
2022/09/11 10:27:30;;;;;;;;;;;20.00;99.90;;;;;;5033828;28;19982;-83
2022/09/11 10:29:57;;;;;;;;;;;20.10;99.90;;;;;;5050724;28;19920;-83
2022/09/11 10:32:24;;;;;;;;;;;20.10;99.90;;;;;;5033724;28;19928;-83
2022/09/11 10:34:50;;;;;;;;;;;20.20;99.90;;;;;;5050359;28;19924;-83
2022/09/11 10:37:26;;;;;;;;;;;20.30;99.90;;;;;;5049959;28;19966;-83
2022/09/11 10:39:53;;;;;;;;;;;20.50;99.90;;;;;;5050577;28;20000;-83
2022/09/11 10:42:21;;;;;;;;;;;20.70;99.90;;;;;;5049546;28;20331;-83
2022/09/11 10:44:48;;;;;;;;;;;20.80;99.90;;;;;;5050060;28;19928;-83
2022/09/11 10:47:20;;;;;;;;;;;20.90;99.90;;;;;;5066879;28;20064;-83
2022/09/11 10:49:46;;;;;;;;;;;20.90;99.90;;;;;;5033282;28;19921;-83
2022/09/11 10:52:12;;;;;;;;;;;20.90;99.90;;;;;;5033464;28;19927;-83
2022/09/11 10:54:52;;;;;;;;;;;20.90;99.90;;;;;;5033654;28;19932;-83
2022/09/11 10:57:22;;;;;;;;;;;21.00;99.90;;;;;;5050074;28;19995;-83
2022/09/11 11:00:00;;;;;;;;;;;20.90;99.90;;;;;;5050100;28;19936;-83
2022/09/11 11:02:47;;;;;;;;;;;21.00;99.90;;;;;;5066690;28;19924;-83
2022/09/11 11:05:19;;;;;;;;;;;21.00;99.90;;;;;;5050377;28;19970;-83
2022/09/11 11:07:55;;;;;;;;;;;20.90;99.90;;;;;;5066562;28;19928;-83
2022/09/11 11:10:23;;;;;;;;;;;20.90;99.90;;;;;;5050403;28;19921;-83
2022/09/11 11:12:57;;;;;;;;;;;20.80;99.90;;;;;;5049905;28;19921;-83
2022/09/11 11:15:27;;;;;;;;;;;20.80;99.90;;;;;;5033660;28;19920;-83
2022/09/11 11:17:55;;;;;;;;;;;20.70;99.90;;;;;;5051228;28;19987;-83
2022/09/11 11:20:30;;;;;;;;;;;20.70;99.90;;;;;;5049900;28;19973;-83
2022/09/11 11:23:05;;;;;;;;;;;20.70;99.90;;;;;;5033120;28;19925;-83
2022/09/11 11:25:39;;;;;;;;;;;20.70;99.90;;;;;;5066507;28;19921;-83
2022/09/11 11:28:22;;;;;;;;;;;20.70;99.90;;;;;;5033469;28;19921;-83
2022/09/11 11:31:03;;;;;;;;;;;20.70;99.90;;;;;;5033183;28;19970;-83
2022/09/11 11:33:35;;;;;;;;;;;20.80;99.90;;;;;;5049718;28;19995;-83
2022/09/11 11:36:00;;;;;;;;;;;20.70;99.90;;;;;;5049688;28;19920;-83
2022/09/11 11:38:40;;;;;;;;;;;20.70;99.90;;;;;;5032489;28;19927;-83
2022/09/11 11:41:08;;;;;;;;;;;20.60;99.90;;;;;;5032947;28;19928;-83
2022/09/11 11:43:36;;;;;;;;;;;20.50;99.90;;;;;;5067109;28;19924;-83
2022/09/11 11:46:14;;;;;;;;;;;20.50;99.90;;;;;;5034780;28;19966;-83
2022/09/11 11:48:43;;;;;;;;;;;20.60;99.90;;;;;;5033850;28;19921;-83
2022/09/11 11:51:14;;;;;;;;;;;20.60;99.90;;;;;;5033980;28;19974;-83
2022/09/11 11:53:43;;;;;;;;;;;20.50;99.90;;;;;;5034253;28;19968;-83
2022/09/11 11:56:17;;;;;;;;;;;20.60;99.90;;;;;;5034114;28;19924;-83
2022/09/11 11:58:48;;;;;;;;;;;20.60;99.90;;;;;;5034106;28;19921;-83
2022/09/11 12:01:28;;;;;;;;;;;20.60;99.90;;;;;;5033812;28;20409;-83
2022/09/11 12:03:58;;;;;;;;;;;20.70;99.90;;;;;;5034260;28;20394;-83
2022/09/11 12:06:25;;;;;;;;;;;20.80;99.90;;;;;;5050501;28;20379;-83
2022/09/11 12:08:50;;;;;;;;;;;21.00;99.90;;;;;;5017320;28;19921;-83
2022/09/11 12:11:21;;;;;;;;;;;21.10;99.90;;;;;;5050049;28;20004;-83
2022/09/11 12:13:47;;;;;;;;;;;21.30;99.90;;;;;;5050526;28;19921;-83
2022/09/11 12:16:14;;;;;;;;;;;21.50;99.90;;;;;;5017118;28;19922;-83
2022/09/11 12:18:41;;;;;;;;;;;21.70;99.90;;;;;;5042801;28;19927;-83
2022/09/11 12:21:22;;;;;;;;;;;21.80;99.90;;;;;;5053459;28;20001;-83
2022/09/11 12:23:47;;;;;;;;;;;21.90;99.90;;;;;;5053596;28;19925;-84
2022/09/11 12:26:21;;;;;;;;;;;22.00;99.90;;;;;;5053057;28;19942;-83
2022/09/11 12:28:47;;;;;;;;;;;22.20;99.90;;;;;;5036821;28;19924;-84
2022/09/11 12:31:14;;;;;;;;;;;22.30;99.90;;;;;;5053115;28;19928;-83
2022/09/11 12:33:39;;;;;;;;;;;22.50;99.90;;;;;;5051324;28;19936;-83
2022/09/11 12:36:08;;;;;;;;;;;22.60;99.90;;;;;;5052745;28;19921;-84
2022/09/11 12:38:39;;;;;;;;;;;22.80;99.90;;;;;;5054242;28;20015;-83
2022/09/11 12:41:16;;;;;;;;;;;22.90;99.90;;;;;;5052556;28;19920;-83
2022/09/11 12:43:41;;;;;;;;;;;23.10;99.90;;;;;;5052684;28;20003;-84
2022/09/11 12:46:12;;;;;;;;;;;23.30;99.90;;;;;;5052648;28;19960;-84
2022/09/11 12:48:42;;;;;;;;;;;23.40;99.90;;;;;;5053549;28;20512;-84
2022/09/11 12:51:19;;;;;;;;;;;23.50;99.90;;;;;;5052103;28;19931;-84
2022/09/11 12:53:46;;;;;;;;;;;23.50;99.90;;;;;;5053658;28;19960;-83
2022/09/11 12:56:18;;;;;;;;;;;23.70;99.90;;;;;;5053566;28;19963;-84
2022/09/11 12:58:45;;;;;;;;;;;24.00;99.90;;;;;;5052206;28;19924;-84
2022/09/11 13:01:13;;;;;;;;;;;24.00;99.90;;;;;;5052767;28;19920;-83
2022/09/11 13:03:59;;;;;;;;;;;24.10;99.90;;;;;;5052437;28;19974;-84
2022/09/11 13:06:35;;;;;;;;;;;24.40;99.90;;;;;;5053362;28;19920;-84
2022/09/11 13:09:02;;;;;;;;;;;24.40;99.90;;;;;;5053379;28;20378;-84
2022/09/11 13:11:45;;;;;;;;;;;24.40;99.90;;;;;;5053132;28;19925;-84
2022/09/11 13:14:28;;;;;;;;;;;24.30;99.90;;;;;;5052363;28;19920;-84
2022/09/11 13:17:11;;;;;;;;;;;24.10;99.90;;;;;;5051816;28;19968;-84
2022/09/11 13:19:38;;;;;;;;;;;24.00;99.90;;;;;;5051652;28;20016;-84
2022/09/11 13:22:22;;;;;;;;;;;23.80;99.90;;;;;;5052047;28;20333;-84
2022/09/11 13:24:48;;;;;;;;;;;23.90;99.90;;;;;;5050414;28;20420;-84
2022/09/11 13:27:35;;;;;;;;;;;23.90;99.90;;;;;;5041318;28;20012;-84
2022/09/11 13:30:00;;;;;;;;;;;24.00;99.90;;;;;;5039331;28;19976;-84
2022/09/11 13:32:26;;;;;;;;;;;24.00;99.90;;;;;;5031878;28;19960;-84
2022/09/11 13:34:57;;;;;;;;;;;23.90;99.90;;;;;;5054252;28;19944;-84
2022/09/11 13:37:44;;;;;;;;;;;23.80;99.90;;;;;;5075640;28;20357;-84
2022/09/11 13:40:18;;;;;;;;;;;23.70;99.90;;;;;;5075756;28;19924;-83
2022/09/11 13:42:44;;;;;;;;;;;23.60;99.90;;;;;;5058153;28;19932;-84
2022/09/11 13:45:14;;;;;;;;;;;23.50;99.90;;;;;;5074573;28;19921;-83
2022/09/11 13:47:40;;;;;;;;;;;23.40;99.90;;;;;;5047669;28;20015;-84
2022/09/11 13:50:08;;;;;;;;;;;23.50;99.90;;;;;;5051816;28;20011;-84
2022/09/11 13:52:34;;;;;;;;;;;23.40;99.90;;;;;;5048374;28;19921;-84
2022/09/11 13:55:08;;;;;;;;;;;23.40;99.90;;;;;;5041270;28;19928;-84
2022/09/11 13:57:34;;;;;;;;;;;23.40;99.90;;;;;;5074290;28;19920;-84
2022/09/11 13:59:59;;;;;;;;;;;23.40;99.90;;;;;;5074556;28;19927;-84
2022/09/11 14:02:36;;;;;;;;;;;23.40;99.90;;;;;;5058316;28;19933;-84
2022/09/11 14:05:07;;;;;;;;;;;23.30;99.90;;;;;;5041915;28;19964;-84
2022/09/11 14:07:39;;;;;;;;;;;23.30;99.90;;;;;;5042201;28;20028;-84
2022/09/11 14:10:06;;;;;;;;;;;23.30;99.90;;;;;;5064322;28;19928;-84
2022/09/11 14:12:33;;;;;;;;;;;23.30;99.90;;;;;;5034423;28;19927;-84
2022/09/11 14:15:09;;;;;;;;;;;23.30;99.90;;;;;;5051436;28;20370;-84
2022/09/11 14:17:38;;;;;;;;;;;23.30;99.90;;;;;;5051351;28;19975;-84
2022/09/11 14:20:03;;;;;;;;;;;23.30;99.90;;;;;;5051443;28;20007;-84
2022/09/11 14:22:30;;;;;;;;;;;23.30;99.90;;;;;;5084334;28;20369;-84
2022/09/11 14:25:08;;;;;;;;;;;23.30;99.90;;;;;;5051661;28;19925;-84
2022/09/11 14:27:36;;;;;;;;;;;23.30;99.90;;;;;;5051106;28;20016;-84